This is the latest recevied weather packets stored in our database for station/object AD4WX-13. If no packets are shown the sender has not sent any weather packets the latest 10 day(s).
| Time | Temp. | Humidity | Pressure | Rain* | Wind** | Luminosity | Snow |
|---|---|---|---|---|---|---|---|
| 1777943872 | 20.56° C | 57% | 1008.3 hPa | 0 mm | - | 0 W/m² | - |
| 1777943239 | 21.11° C | 55% | 1008.3 hPa | 0 mm | - | 0 W/m² | - |
| 1777942000 | 21.67° C | 52% | 1008.2 hPa | 0 mm | - | 0 W/m² | - |
| 1777941394 | 22.22° C | 50% | 1008.3 hPa | 0 mm | - | 5 W/m² | - |
| 1777932164 | 26.67° C | 38% | 1008.2 hPa | 0 mm | - | 461 W/m² | - |
| 1777918703 | 26.67° C | 43% | 1010.4 hPa | 0 mm | - | 976 W/m² | - |
| 1777916259 | 26.11° C | 46% | 1010.8 hPa | 0 mm | - | 846 W/m² | - |
| 1777913894 | 25.56° C | 45% | 1011.3 hPa | 0 mm | - | 937 W/m² | - |
| 1777912056 | 23.89° C | 51% | 1011.8 hPa | 0 mm | - | 909 W/m² | - |
| 1777905317 | 21.11° C | 61% | 1012.7 hPa | 0 mm | - | 480 W/m² | - |
| 1777904691 | 20.56° C | 61% | 1012.7 hPa | 0 mm | - | 645 W/m² | - |
| 1777901098 | 17.22° C | 68% | 1012.9 hPa | 0 mm | - | 420 W/m² | - |
| 1777899233 | 15° C | 76% | 1013 hPa | 0 mm | - | 315 W/m² | - |
| 1777896133 | 10° C | 90% | 1012.7 hPa | 0 mm | - | 58 W/m² | - |
| 1777894897 | 9.44° C | 91% | 1012.6 hPa | 0 mm | - | 39 W/m² | - |
| 1777891829 | 9.44° C | 91% | 1012.4 hPa | 0 mm | - | 0 W/m² | - |
| 1777890645 | 9.44° C | 91% | 1012.3 hPa | 0 mm | - | 0 W/m² | - |
| 1777885034 | 7.78° C | 92% | 1012.5 hPa | 0 mm | - | 0 W/m² | - |
| 1777877622 | 8.33° C | 90% | 1013.3 hPa | 0 mm | - | 0 W/m² | - |
| 1777877028 | 8.33° C | 90% | 1013.3 hPa | 0 mm | - | 0 W/m² | - |
| 1777875252 | 8.89° C | 89% | 1013.7 hPa | 0 mm | - | 0 W/m² | - |
| 1777874648 | 8.89° C | 89% | 1013.9 hPa | 0 mm | - | 0 W/m² | - |
| 1777874026 | 8.89° C | 89% | 1013.8 hPa | 0 mm | - | 0 W/m² | - |
| 1777872816 | 8.89° C | 89% | 1013.8 hPa | 0 mm | - | 0 W/m² | - |
| 1777868445 | 9.44° C | 88% | 1014 hPa | 0 mm | - | 0 W/m² | - |
* Rain latest hour (hover to see other rain measurements)
** Current wind speed in m/s (hover to see current wind gust speed)